sensor_id;sensor_type;location;lat;lon;timestamp;P1;durP1;ratioP1;P2;durP2;ratioP2
8683;SDS011;4379;59.744;18.206;2023-02-01T00:01:08;2.03;;;1.37;;
8683;SDS011;4379;59.744;18.206;2023-02-01T00:03:36;2.53;;;1.43;;
8683;SDS011;4379;59.744;18.206;2023-02-01T00:06:04;1.67;;;1.40;;
8683;SDS011;4379;59.744;18.206;2023-02-01T00:08:32;1.23;;;1.13;;
8683;SDS011;4379;59.744;18.206;2023-02-01T00:11:07;3.53;;;1.40;;
8683;SDS011;4379;59.744;18.206;2023-02-01T00:13:36;1.83;;;1.30;;
8683;SDS011;4379;59.744;18.206;2023-02-01T00:16:06;1.67;;;1.40;;
8683;SDS011;4379;59.744;18.206;2023-02-01T00:18:39;2.77;;;1.30;;
8683;SDS011;4379;59.744;18.206;2023-02-01T00:21:06;2.37;;;1.43;;
8683;SDS011;4379;59.744;18.206;2023-02-01T00:23:34;1.83;;;1.50;;
8683;SDS011;4379;59.744;18.206;2023-02-01T00:26:03;2.37;;;1.33;;
8683;SDS011;4379;59.744;18.206;2023-02-01T00:28:32;2.03;;;1.50;;
8683;SDS011;4379;59.744;18.206;2023-02-01T00:31:01;1.83;;;1.40;;
8683;SDS011;4379;59.744;18.206;2023-02-01T00:33:31;1.33;;;1.23;;
8683;SDS011;4379;59.744;18.206;2023-02-01T00:35:59;4.20;;;1.13;;
8683;SDS011;4379;59.744;18.206;2023-02-01T00:38:29;1.37;;;1.27;;
8683;SDS011;4379;59.744;18.206;2023-02-01T00:41:07;2.57;;;1.50;;
8683;SDS011;4379;59.744;18.206;2023-02-01T00:43:34;3.47;;;1.60;;
8683;SDS011;4379;59.744;18.206;2023-02-01T00:46:02;3.70;;;1.90;;
8683;SDS011;4379;59.744;18.206;2023-02-01T00:48:30;1.77;;;1.67;;
8683;SDS011;4379;59.744;18.206;2023-02-01T00:51:01;3.80;;;1.67;;
8683;SDS011;4379;59.744;18.206;2023-02-01T00:53:33;1.33;;;1.23;;
8683;SDS011;4379;59.744;18.206;2023-02-01T00:56:02;7.47;;;1.50;;
8683;SDS011;4379;59.744;18.206;2023-02-01T00:58:30;1.97;;;1.50;;
8683;SDS011;4379;59.744;18.206;2023-02-01T01:01:02;2.03;;;1.40;;
8683;SDS011;4379;59.744;18.206;2023-02-01T01:03:43;2.73;;;1.50;;
8683;SDS011;4379;59.744;18.206;2023-02-01T01:06:17;2.33;;;1.53;;
8683;SDS011;4379;59.744;18.206;2023-02-01T01:08:50;1.60;;;1.50;;
8683;SDS011;4379;59.744;18.206;2023-02-01T01:11:20;2.87;;;1.30;;
8683;SDS011;4379;59.744;18.206;2023-02-01T01:13:51;1.60;;;1.10;;
8683;SDS011;4379;59.744;18.206;2023-02-01T01:16:20;1.80;;;1.50;;
8683;SDS011;4379;59.744;18.206;2023-02-01T01:18:49;1.87;;;1.33;;
8683;SDS011;4379;59.744;18.206;2023-02-01T01:21:17;3.60;;;1.67;;
8683;SDS011;4379;59.744;18.206;2023-02-01T01:23:45;3.20;;;1.50;;
8683;SDS011;4379;59.744;18.206;2023-02-01T01:26:18;2.50;;;1.70;;
8683;SDS011;4379;59.744;18.206;2023-02-01T01:28:54;1.63;;;1.37;;
8683;SDS011;4379;59.744;18.206;2023-02-01T01:31:23;1.53;;;1.40;;
8683;SDS011;4379;59.744;18.206;2023-02-01T01:33:51;1.90;;;1.80;;
8683;SDS011;4379;59.744;18.206;2023-02-01T01:36:20;2.33;;;1.80;;
8683;SDS011;4379;59.744;18.206;2023-02-01T01:38:48;3.00;;;1.47;;
8683;SDS011;4379;59.744;18.206;2023-02-01T01:41:18;2.90;;;1.50;;
8683;SDS011;4379;59.744;18.206;2023-02-01T01:43:52;1.80;;;1.70;;
8683;SDS011;4379;59.744;18.206;2023-02-01T01:46:23;2.90;;;1.53;;
8683;SDS011;4379;59.744;18.206;2023-02-01T01:48:56;2.07;;;1.47;;
8683;SDS011;4379;59.744;18.206;2023-02-01T01:51:41;3.33;;;1.60;;
8683;SDS011;4379;59.744;18.206;2023-02-01T01:54:34;3.00;;;1.77;;
8683;SDS011;4379;59.744;18.206;2023-02-01T02:00:14;2.47;;;1.40;;
8683;SDS011;4379;59.744;18.206;2023-02-01T02:02:47;1.63;;;1.23;;
8683;SDS011;4379;59.744;18.206;2023-02-01T02:05:20;2.60;;;1.30;;
8683;SDS011;4379;59.744;18.206;2023-02-01T02:07:49;2.43;;;1.57;;
8683;SDS011;4379;59.744;18.206;2023-02-01T02:10:19;3.33;;;1.90;;
8683;SDS011;4379;59.744;18.206;2023-02-01T02:12:47;1.50;;;1.40;;
8683;SDS011;4379;59.744;18.206;2023-02-01T02:15:15;2.07;;;1.50;;
8683;SDS011;4379;59.744;18.206;2023-02-01T02:37:09;3.17;;;1.80;;
8683;SDS011;4379;59.744;18.206;2023-02-01T02:42:33;2.00;;;1.60;;
8683;SDS011;4379;59.744;18.206;2023-02-01T02:48:51;1.37;;;1.27;;
8683;SDS011;4379;59.744;18.206;2023-02-01T02:51:29;1.50;;;1.40;;
8683;SDS011;4379;59.744;18.206;2023-02-01T02:54:25;2.03;;;1.33;;
8683;SDS011;4379;59.744;18.206;2023-02-01T02:57:19;2.90;;;1.63;;
8683;SDS011;4379;59.744;18.206;2023-02-01T03:00:12;2.50;;;1.30;;
8683;SDS011;4379;59.744;18.206;2023-02-01T03:03:01;2.60;;;1.43;;
8683;SDS011;4379;59.744;18.206;2023-02-01T03:05:48;4.30;;;1.50;;
8683;SDS011;4379;59.744;18.206;2023-02-01T03:08:20;2.03;;;1.40;;
8683;SDS011;4379;59.744;18.206;2023-02-01T03:11:00;3.53;;;1.40;;
8683;SDS011;4379;59.744;18.206;2023-02-01T03:16:24;2.23;;;1.53;;
8683;SDS011;4379;59.744;18.206;2023-02-01T03:21:48;2.17;;;1.30;;
8683;SDS011;4379;59.744;18.206;2023-02-01T03:24:25;1.60;;;1.50;;
8683;SDS011;4379;59.744;18.206;2023-02-01T03:27:18;1.87;;;1.77;;
8683;SDS011;4379;59.744;18.206;2023-02-01T03:32:36;2.13;;;1.20;;
8683;SDS011;4379;59.744;18.206;2023-02-01T03:36:14;3.77;;;1.60;;
8683;SDS011;4379;59.744;18.206;2023-02-01T03:41:15;1.70;;;1.60;;
8683;SDS011;4379;59.744;18.206;2023-02-01T03:43:50;4.23;;;1.80;;
8683;SDS011;4379;59.744;18.206;2023-02-01T03:46:23;1.80;;;1.70;;
8683;SDS011;4379;59.744;18.206;2023-02-01T03:49:05;2.80;;;2.00;;
8683;SDS011;4379;59.744;18.206;2023-02-01T03:51:35;3.33;;;1.93;;
8683;SDS011;4379;59.744;18.206;2023-02-01T03:54:06;2.37;;;1.83;;
8683;SDS011;4379;59.744;18.206;2023-02-01T03:56:38;1.70;;;1.60;;
8683;SDS011;4379;59.744;18.206;2023-02-01T03:59:11;4.70;;;1.60;;
8683;SDS011;4379;59.744;18.206;2023-02-01T04:01:40;4.20;;;1.73;;
8683;SDS011;4379;59.744;18.206;2023-02-01T04:04:08;2.10;;;2.00;;
8683;SDS011;4379;59.744;18.206;2023-02-01T04:06:36;3.70;;;1.97;;
8683;SDS011;4379;59.744;18.206;2023-02-01T04:09:04;2.90;;;1.83;;
8683;SDS011;4379;59.744;18.206;2023-02-01T04:11:31;3.30;;;1.90;;
8683;SDS011;4379;59.744;18.206;2023-02-01T04:13:59;2.00;;;1.50;;
8683;SDS011;4379;59.744;18.206;2023-02-01T04:16:31;3.37;;;2.10;;
8683;SDS011;4379;59.744;18.206;2023-02-01T04:18:59;2.60;;;1.60;;
8683;SDS011;4379;59.744;18.206;2023-02-01T04:21:27;4.13;;;2.20;;
8683;SDS011;4379;59.744;18.206;2023-02-01T04:23:55;7.60;;;2.97;;
8683;SDS011;4379;59.744;18.206;2023-02-01T04:26:22;7.23;;;1.97;;
8683;SDS011;4379;59.744;18.206;2023-02-01T04:28:50;2.20;;;2.00;;
8683;SDS011;4379;59.744;18.206;2023-02-01T04:31:19;4.27;;;2.33;;
8683;SDS011;4379;59.744;18.206;2023-02-01T04:33:52;3.10;;;1.73;;
8683;SDS011;4379;59.744;18.206;2023-02-01T04:36:21;2.03;;;1.83;;
8683;SDS011;4379;59.744;18.206;2023-02-01T04:38:49;3.33;;;1.90;;
8683;SDS011;4379;59.744;18.206;2023-02-01T04:41:17;3.63;;;2.03;;
8683;SDS011;4379;59.744;18.206;2023-02-01T04:43:49;3.00;;;1.80;;
8683;SDS011;4379;59.744;18.206;2023-02-01T04:46:19;1.83;;;1.73;;
8683;SDS011;4379;59.744;18.206;2023-02-01T04:48:46;2.70;;;1.77;;
8683;SDS011;4379;59.744;18.206;2023-02-01T04:51:14;2.70;;;2.23;;
8683;SDS011;4379;59.744;18.206;2023-02-01T04:53:41;2.47;;;2.27;;
8683;SDS011;4379;59.744;18.206;2023-02-01T04:56:09;2.20;;;2.00;;
8683;SDS011;4379;59.744;18.206;2023-02-01T04:58:36;4.57;;;2.03;;
8683;SDS011;4379;59.744;18.206;2023-02-01T05:01:05;4.70;;;1.83;;
8683;SDS011;4379;59.744;18.206;2023-02-01T05:03:33;2.60;;;1.63;;
8683;SDS011;4379;59.744;18.206;2023-02-01T05:06:01;4.80;;;2.10;;
8683;SDS011;4379;59.744;18.206;2023-02-01T05:08:31;1.60;;;1.50;;
8683;SDS011;4379;59.744;18.206;2023-02-01T05:10:59;1.70;;;1.60;;
8683;SDS011;4379;59.744;18.206;2023-02-01T05:13:29;2.33;;;2.10;;
8683;SDS011;4379;59.744;18.206;2023-02-01T05:16:15;1.63;;;1.53;;
8683;SDS011;4379;59.744;18.206;2023-02-01T05:18:43;2.60;;;2.07;;
8683;SDS011;4379;59.744;18.206;2023-02-01T05:21:12;4.80;;;2.07;;
8683;SDS011;4379;59.744;18.206;2023-02-01T05:23:40;2.27;;;2.10;;
8683;SDS011;4379;59.744;18.206;2023-02-01T05:26:31;2.57;;;1.77;;
8683;SDS011;4379;59.744;18.206;2023-02-01T05:28:58;2.17;;;1.87;;
8683;SDS011;4379;59.744;18.206;2023-02-01T05:31:26;2.03;;;1.77;;
8683;SDS011;4379;59.744;18.206;2023-02-01T05:33:54;6.07;;;2.23;;
8683;SDS011;4379;59.744;18.206;2023-02-01T05:36:22;5.87;;;2.07;;
8683;SDS011;4379;59.744;18.206;2023-02-01T05:38:49;3.70;;;2.30;;
8683;SDS011;4379;59.744;18.206;2023-02-01T05:41:17;3.30;;;2.30;;
8683;SDS011;4379;59.744;18.206;2023-02-01T05:43:44;4.50;;;2.10;;
8683;SDS011;4379;59.744;18.206;2023-02-01T05:46:12;3.67;;;1.90;;
8683;SDS011;4379;59.744;18.206;2023-02-01T05:48:40;6.23;;;2.10;;
8683;SDS011;4379;59.744;18.206;2023-02-01T05:51:08;2.83;;;1.80;;
8683;SDS011;4379;59.744;18.206;2023-02-01T05:53:37;2.13;;;1.77;;
8683;SDS011;4379;59.744;18.206;2023-02-01T05:56:04;2.17;;;2.00;;
8683;SDS011;4379;59.744;18.206;2023-02-01T05:58:32;2.17;;;1.97;;
8683;SDS011;4379;59.744;18.206;2023-02-01T06:01:00;5.33;;;2.20;;
8683;SDS011;4379;59.744;18.206;2023-02-01T06:03:28;2.50;;;1.90;;
8683;SDS011;4379;59.744;18.206;2023-02-01T06:05:56;3.77;;;1.70;;
8683;SDS011;4379;59.744;18.206;2023-02-01T06:08:23;2.17;;;1.70;;
8683;SDS011;4379;59.744;18.206;2023-02-01T06:11:02;1.83;;;1.73;;
8683;SDS011;4379;59.744;18.206;2023-02-01T06:13:32;2.57;;;1.70;;
8683;SDS011;4379;59.744;18.206;2023-02-01T06:16:01;2.10;;;1.90;;
8683;SDS011;4379;59.744;18.206;2023-02-01T06:18:30;2.37;;;2.17;;
8683;SDS011;4379;59.744;18.206;2023-02-01T06:20:58;2.43;;;2.23;;
8683;SDS011;4379;59.744;18.206;2023-02-01T06:23:29;2.03;;;1.90;;
8683;SDS011;4379;59.744;18.206;2023-02-01T06:28:29;3.57;;;2.20;;
8683;SDS011;4379;59.744;18.206;2023-02-01T06:30:57;2.83;;;2.07;;
8683;SDS011;4379;59.744;18.206;2023-02-01T06:33:29;4.80;;;2.30;;
8683;SDS011;4379;59.744;18.206;2023-02-01T06:35:57;7.77;;;2.40;;
8683;SDS011;4379;59.744;18.206;2023-02-01T06:38:25;3.83;;;2.03;;
8683;SDS011;4379;59.744;18.206;2023-02-01T06:40:54;4.10;;;2.17;;
8683;SDS011;4379;59.744;18.206;2023-02-01T06:43:23;2.60;;;1.90;;
8683;SDS011;4379;59.744;18.206;2023-02-01T06:45:52;2.80;;;1.80;;
8683;SDS011;4379;59.744;18.206;2023-02-01T06:48:20;3.00;;;2.17;;
8683;SDS011;4379;59.744;18.206;2023-02-01T06:50:48;2.90;;;2.20;;
8683;SDS011;4379;59.744;18.206;2023-02-01T06:53:15;2.23;;;2.03;;
8683;SDS011;4379;59.744;18.206;2023-02-01T06:55:51;4.83;;;2.00;;
8683;SDS011;4379;59.744;18.206;2023-02-01T06:58:19;2.50;;;1.97;;
8683;SDS011;4379;59.744;18.206;2023-02-01T07:00:47;4.33;;;2.10;;
8683;SDS011;4379;59.744;18.206;2023-02-01T07:03:15;2.27;;;1.97;;
8683;SDS011;4379;59.744;18.206;2023-02-01T07:05:42;4.57;;;2.20;;
8683;SDS011;4379;59.744;18.206;2023-02-01T07:08:10;2.40;;;2.20;;
8683;SDS011;4379;59.744;18.206;2023-02-01T07:10:37;2.10;;;1.93;;
8683;SDS011;4379;59.744;18.206;2023-02-01T07:13:05;4.13;;;2.13;;
8683;SDS011;4379;59.744;18.206;2023-02-01T07:15:35;3.23;;;2.10;;
8683;SDS011;4379;59.744;18.206;2023-02-01T07:18:02;6.30;;;2.20;;
8683;SDS011;4379;59.744;18.206;2023-02-01T07:20:30;2.17;;;1.97;;
8683;SDS011;4379;59.744;18.206;2023-02-01T07:22:57;4.57;;;2.10;;
8683;SDS011;4379;59.744;18.206;2023-02-01T07:25:25;4.60;;;2.20;;
8683;SDS011;4379;59.744;18.206;2023-02-01T07:27:52;3.57;;;2.30;;
8683;SDS011;4379;59.744;18.206;2023-02-01T07:30:20;2.93;;;2.10;;
8683;SDS011;4379;59.744;18.206;2023-02-01T07:32:48;2.57;;;2.07;;
8683;SDS011;4379;59.744;18.206;2023-02-01T07:35:15;2.83;;;2.00;;
8683;SDS011;4379;59.744;18.206;2023-02-01T07:37:43;2.00;;;1.80;;
8683;SDS011;4379;59.744;18.206;2023-02-01T07:40:10;5.73;;;2.50;;
8683;SDS011;4379;59.744;18.206;2023-02-01T07:42:40;7.30;;;2.40;;
8683;SDS011;4379;59.744;18.206;2023-02-01T07:45:08;2.90;;;1.90;;
8683;SDS011;4379;59.744;18.206;2023-02-01T07:47:46;4.23;;;2.20;;
8683;SDS011;4379;59.744;18.206;2023-02-01T07:50:15;3.20;;;2.20;;
8683;SDS011;4379;59.744;18.206;2023-02-01T07:52:42;2.60;;;2.17;;
8683;SDS011;4379;59.744;18.206;2023-02-01T07:55:10;1.80;;;1.70;;
8683;SDS011;4379;59.744;18.206;2023-02-01T07:57:37;2.23;;;2.03;;
8683;SDS011;4379;59.744;18.206;2023-02-01T08:00:05;3.80;;;1.87;;
8683;SDS011;4379;59.744;18.206;2023-02-01T08:02:51;3.67;;;1.97;;
8683;SDS011;4379;59.744;18.206;2023-02-01T08:05:18;3.13;;;2.10;;
8683;SDS011;4379;59.744;18.206;2023-02-01T08:07:49;5.47;;;2.10;;
8683;SDS011;4379;59.744;18.206;2023-02-01T08:10:18;3.37;;;2.00;;
8683;SDS011;4379;59.744;18.206;2023-02-01T08:12:46;3.80;;;2.10;;
8683;SDS011;4379;59.744;18.206;2023-02-01T08:15:14;3.57;;;2.10;;
8683;SDS011;4379;59.744;18.206;2023-02-01T08:17:49;3.67;;;2.20;;
8683;SDS011;4379;59.744;18.206;2023-02-01T08:20:17;2.10;;;1.97;;
8683;SDS011;4379;59.744;18.206;2023-02-01T08:22:45;3.13;;;2.03;;
8683;SDS011;4379;59.744;18.206;2023-02-01T08:25:13;2.70;;;1.77;;
8683;SDS011;4379;59.744;18.206;2023-02-01T08:27:40;4.87;;;2.13;;
8683;SDS011;4379;59.744;18.206;2023-02-01T08:30:08;4.23;;;2.10;;
8683;SDS011;4379;59.744;18.206;2023-02-01T08:32:36;4.60;;;1.83;;
8683;SDS011;4379;59.744;18.206;2023-02-01T08:35:04;2.47;;;1.80;;
8683;SDS011;4379;59.744;18.206;2023-02-01T08:37:32;2.30;;;2.10;;
8683;SDS011;4379;59.744;18.206;2023-02-01T08:40:00;2.30;;;1.63;;
8683;SDS011;4379;59.744;18.206;2023-02-01T08:42:27;2.10;;;2.00;;
8683;SDS011;4379;59.744;18.206;2023-02-01T08:45:13;2.40;;;1.60;;
8683;SDS011;4379;59.744;18.206;2023-02-01T08:47:41;1.97;;;1.77;;
8683;SDS011;4379;59.744;18.206;2023-02-01T08:50:09;2.27;;;2.07;;
8683;SDS011;4379;59.744;18.206;2023-02-01T08:52:37;1.77;;;1.63;;
8683;SDS011;4379;59.744;18.206;2023-02-01T08:55:05;2.20;;;2.00;;
8683;SDS011;4379;59.744;18.206;2023-02-01T08:57:33;3.00;;;1.87;;
8683;SDS011;4379;59.744;18.206;2023-02-01T09:00:02;2.77;;;1.90;;
8683;SDS011;4379;59.744;18.206;2023-02-01T09:02:31;3.03;;;1.70;;
8683;SDS011;4379;59.744;18.206;2023-02-01T09:04:59;1.57;;;1.40;;
8683;SDS011;4379;59.744;18.206;2023-02-01T09:07:27;3.50;;;1.53;;
8683;SDS011;4379;59.744;18.206;2023-02-01T09:09:54;1.77;;;1.63;;
8683;SDS011;4379;59.744;18.206;2023-02-01T09:12:23;2.10;;;1.93;;
8683;SDS011;4379;59.744;18.206;2023-02-01T09:14:50;5.17;;;1.70;;
8683;SDS011;4379;59.744;18.206;2023-02-01T09:17:18;2.70;;;1.77;;
8683;SDS011;4379;59.744;18.206;2023-02-01T09:19:45;2.63;;;1.90;;
8683;SDS011;4379;59.744;18.206;2023-02-01T09:22:14;1.63;;;1.40;;
8683;SDS011;4379;59.744;18.206;2023-02-01T09:24:43;1.70;;;1.40;;
8683;SDS011;4379;59.744;18.206;2023-02-01T09:27:10;1.93;;;1.40;;
8683;SDS011;4379;59.744;18.206;2023-02-01T09:29:38;3.67;;;1.60;;
8683;SDS011;4379;59.744;18.206;2023-02-01T09:32:05;1.60;;;1.50;;
8683;SDS011;4379;59.744;18.206;2023-02-01T09:34:34;3.70;;;1.53;;
8683;SDS011;4379;59.744;18.206;2023-02-01T09:37:02;1.77;;;1.67;;
8683;SDS011;4379;59.744;18.206;2023-02-01T09:39:30;4.40;;;1.57;;
8683;SDS011;4379;59.744;18.206;2023-02-01T09:47:38;1.70;;;1.17;;
8683;SDS011;4379;59.744;18.206;2023-02-01T09:50:11;1.60;;;1.50;;
8683;SDS011;4379;59.744;18.206;2023-02-01T09:55:39;5.10;;;1.33;;
8683;SDS011;4379;59.744;18.206;2023-02-01T09:58:29;2.03;;;1.47;;
8683;SDS011;4379;59.744;18.206;2023-02-01T10:01:04;6.50;;;1.50;;
8683;SDS011;4379;59.744;18.206;2023-02-01T10:03:38;1.50;;;1.40;;
8683;SDS011;4379;59.744;18.206;2023-02-01T10:06:40;1.30;;;1.20;;
8683;SDS011;4379;59.744;18.206;2023-02-01T10:11:32;1.60;;;1.40;;
8683;SDS011;4379;59.744;18.206;2023-02-01T10:17:29;2.00;;;1.80;;
8683;SDS011;4379;59.744;18.206;2023-02-01T10:20:10;1.87;;;1.77;;
8683;SDS011;4379;59.744;18.206;2023-02-01T10:28:56;2.40;;;2.20;;
8683;SDS011;4379;59.744;18.206;2023-02-01T10:31:31;2.67;;;2.13;;
8683;SDS011;4379;59.744;18.206;2023-02-01T10:34:10;2.20;;;2.00;;
8683;SDS011;4379;59.744;18.206;2023-02-01T10:39:56;3.00;;;1.60;;
8683;SDS011;4379;59.744;18.206;2023-02-01T10:42:27;1.93;;;1.37;;
8683;SDS011;4379;59.744;18.206;2023-02-01T10:44:59;2.53;;;1.57;;
8683;SDS011;4379;59.744;18.206;2023-02-01T10:47:29;2.57;;;1.73;;
8683;SDS011;4379;59.744;18.206;2023-02-01T10:52:50;7.30;;;4.87;;
8683;SDS011;4379;59.744;18.206;2023-02-01T10:58:14;3.67;;;2.87;;
8683;SDS011;4379;59.744;18.206;2023-02-01T11:00:48;4.27;;;2.80;;
8683;SDS011;4379;59.744;18.206;2023-02-01T11:05:57;2.17;;;1.70;;
8683;SDS011;4379;59.744;18.206;2023-02-01T11:08:25;1.90;;;1.80;;
8683;SDS011;4379;59.744;18.206;2023-02-01T11:11:01;2.23;;;2.03;;
8683;SDS011;4379;59.744;18.206;2023-02-01T11:13:33;2.60;;;2.30;;
8683;SDS011;4379;59.744;18.206;2023-02-01T11:16:05;3.37;;;1.70;;
8683;SDS011;4379;59.744;18.206;2023-02-01T11:18:36;1.80;;;1.57;;
8683;SDS011;4379;59.744;18.206;2023-02-01T11:21:05;2.73;;;1.70;;
8683;SDS011;4379;59.744;18.206;2023-02-01T11:23:40;1.97;;;1.83;;
8683;SDS011;4379;59.744;18.206;2023-02-01T11:26:20;2.03;;;1.60;;
8683;SDS011;4379;59.744;18.206;2023-02-01T11:28:56;5.67;;;2.10;;
8683;SDS011;4379;59.744;18.206;2023-02-01T11:31:35;2.77;;;1.57;;
8683;SDS011;4379;59.744;18.206;2023-02-01T11:34:07;4.03;;;1.63;;
8683;SDS011;4379;59.744;18.206;2023-02-01T11:36:42;1.43;;;1.13;;
8683;SDS011;4379;59.744;18.206;2023-02-01T11:44:30;2.37;;;1.10;;
8683;SDS011;4379;59.744;18.206;2023-02-01T11:49:50;1.40;;;1.30;;
8683;SDS011;4379;59.744;18.206;2023-02-01T11:52:27;1.27;;;1.13;;
8683;SDS011;4379;59.744;18.206;2023-02-01T12:03:31;1.90;;;1.70;;
8683;SDS011;4379;59.744;18.206;2023-02-01T12:17:10;1.70;;;1.60;;
8683;SDS011;4379;59.744;18.206;2023-02-01T12:19:44;1.50;;;1.30;;
8683;SDS011;4379;59.744;18.206;2023-02-01T12:28:24;1.63;;;1.27;;
8683;SDS011;4379;59.744;18.206;2023-02-01T12:31:29;1.50;;;1.40;;
8683;SDS011;4379;59.744;18.206;2023-02-01T12:37:08;1.33;;;1.23;;
8683;SDS011;4379;59.744;18.206;2023-02-01T12:39:46;2.23;;;1.20;;
8683;SDS011;4379;59.744;18.206;2023-02-01T12:42:31;2.00;;;1.20;;
8683;SDS011;4379;59.744;18.206;2023-02-01T12:47:44;1.47;;;1.30;;
8683;SDS011;4379;59.744;18.206;2023-02-01T12:52:53;2.60;;;1.30;;
8683;SDS011;4379;59.744;18.206;2023-02-01T12:55:35;1.83;;;1.70;;
8683;SDS011;4379;59.744;18.206;2023-02-01T13:00:42;1.77;;;1.13;;
8683;SDS011;4379;59.744;18.206;2023-02-01T13:08:56;1.37;;;1.10;;
8683;SDS011;4379;59.744;18.206;2023-02-01T13:11:44;4.07;;;1.13;;
8683;SDS011;4379;59.744;18.206;2023-02-01T13:17:22;1.37;;;1.27;;
8683;SDS011;4379;59.744;18.206;2023-02-01T13:20:03;2.43;;;1.10;;
8683;SDS011;4379;59.744;18.206;2023-02-01T13:22:49;1.27;;;1.20;;
8683;SDS011;4379;59.744;18.206;2023-02-01T13:25:31;1.13;;;1.03;;
8683;SDS011;4379;59.744;18.206;2023-02-01T13:28:17;1.53;;;1.00;;
8683;SDS011;4379;59.744;18.206;2023-02-01T13:45:29;1.27;;;0.93;;
8683;SDS011;4379;59.744;18.206;2023-02-01T13:48:02;1.10;;;1.00;;
8683;SDS011;4379;59.744;18.206;2023-02-01T13:50:33;1.60;;;1.00;;
8683;SDS011;4379;59.744;18.206;2023-02-01T13:55:38;0.90;;;0.90;;
8683;SDS011;4379;59.744;18.206;2023-02-01T14:00:36;1.13;;;0.90;;
8683;SDS011;4379;59.744;18.206;2023-02-01T14:08:35;1.00;;;0.90;;
8683;SDS011;4379;59.744;18.206;2023-02-01T14:11:07;1.10;;;1.00;;
8683;SDS011;4379;59.744;18.206;2023-02-01T14:24:31;1.43;;;0.93;;
8683;SDS011;4379;59.744;18.206;2023-02-01T14:27:21;1.17;;;0.90;;
8683;SDS011;4379;59.744;18.206;2023-02-01T14:29:52;1.10;;;0.73;;
8683;SDS011;4379;59.744;18.206;2023-02-01T14:35:31;0.90;;;0.90;;
8683;SDS011;4379;59.744;18.206;2023-02-01T14:37:59;1.93;;;1.00;;
8683;SDS011;4379;59.744;18.206;2023-02-01T14:40:31;1.03;;;1.00;;
8683;SDS011;4379;59.744;18.206;2023-02-01T14:43:01;1.80;;;0.80;;
8683;SDS011;4379;59.744;18.206;2023-02-01T14:58:29;0.87;;;0.73;;
8683;SDS011;4379;59.744;18.206;2023-02-01T15:01:18;3.17;;;0.90;;
8683;SDS011;4379;59.744;18.206;2023-02-01T15:03:55;0.97;;;0.93;;
8683;SDS011;4379;59.744;18.206;2023-02-01T15:09:25;1.10;;;1.10;;
8683;SDS011;4379;59.744;18.206;2023-02-01T15:14:32;1.73;;;1.27;;
8683;SDS011;4379;59.744;18.206;2023-02-01T15:17:02;9.47;;;1.60;;
8683;SDS011;4379;59.744;18.206;2023-02-01T15:19:52;3.97;;;1.30;;
8683;SDS011;4379;59.744;18.206;2023-02-01T15:22:25;2.23;;;1.20;;
8683;SDS011;4379;59.744;18.206;2023-02-01T15:24:55;4.70;;;1.30;;
8683;SDS011;4379;59.744;18.206;2023-02-01T15:27:25;3.63;;;0.97;;
8683;SDS011;4379;59.744;18.206;2023-02-01T15:30:06;3.80;;;1.10;;
8683;SDS011;4379;59.744;18.206;2023-02-01T15:32:36;3.93;;;1.47;;
8683;SDS011;4379;59.744;18.206;2023-02-01T15:35:31;2.13;;;0.90;;
8683;SDS011;4379;59.744;18.206;2023-02-01T15:41:02;2.30;;;1.07;;
8683;SDS011;4379;59.744;18.206;2023-02-01T15:46:22;3.03;;;1.20;;
8683;SDS011;4379;59.744;18.206;2023-02-01T15:49:16;4.40;;;1.27;;
8683;SDS011;4379;59.744;18.206;2023-02-01T15:51:47;4.60;;;1.10;;
8683;SDS011;4379;59.744;18.206;2023-02-01T15:54:16;2.10;;;1.07;;
8683;SDS011;4379;59.744;18.206;2023-02-01T15:57:12;1.73;;;1.10;;
8683;SDS011;4379;59.744;18.206;2023-02-01T15:59:57;1.40;;;1.27;;
8683;SDS011;4379;59.744;18.206;2023-02-01T16:02:32;1.10;;;0.93;;
8683;SDS011;4379;59.744;18.206;2023-02-01T16:05:02;3.43;;;1.00;;
8683;SDS011;4379;59.744;18.206;2023-02-01T16:07:31;2.20;;;1.20;;
8683;SDS011;4379;59.744;18.206;2023-02-01T16:10:01;1.60;;;0.93;;
8683;SDS011;4379;59.744;18.206;2023-02-01T16:12:46;1.00;;;1.00;;
8683;SDS011;4379;59.744;18.206;2023-02-01T16:15:16;1.37;;;1.23;;
8683;SDS011;4379;59.744;18.206;2023-02-01T16:17:56;1.17;;;1.10;;
8683;SDS011;4379;59.744;18.206;2023-02-01T16:20:24;3.23;;;0.90;;
8683;SDS011;4379;59.744;18.206;2023-02-01T16:22:52;4.10;;;1.87;;
8683;SDS011;4379;59.744;18.206;2023-02-01T16:25:19;1.73;;;1.60;;
8683;SDS011;4379;59.744;18.206;2023-02-01T16:27:47;1.60;;;1.30;;
8683;SDS011;4379;59.744;18.206;2023-02-01T16:30:15;1.50;;;1.40;;
8683;SDS011;4379;59.744;18.206;2023-02-01T16:32:55;1.50;;;1.40;;
8683;SDS011;4379;59.744;18.206;2023-02-01T16:35:26;1.60;;;1.43;;
8683;SDS011;4379;59.744;18.206;2023-02-01T16:37:56;1.70;;;1.50;;
8683;SDS011;4379;59.744;18.206;2023-02-01T16:40:25;1.77;;;1.67;;
8683;SDS011;4379;59.744;18.206;2023-02-01T16:42:53;3.30;;;1.50;;
8683;SDS011;4379;59.744;18.206;2023-02-01T16:45:25;1.90;;;1.67;;
8683;SDS011;4379;59.744;18.206;2023-02-01T16:47:54;4.07;;;2.00;;
8683;SDS011;4379;59.744;18.206;2023-02-01T16:50:24;2.93;;;1.67;;
8683;SDS011;4379;59.744;18.206;2023-02-01T16:52:53;1.50;;;1.40;;
8683;SDS011;4379;59.744;18.206;2023-02-01T16:55:22;1.80;;;1.70;;
8683;SDS011;4379;59.744;18.206;2023-02-01T16:57:50;2.30;;;1.70;;
8683;SDS011;4379;59.744;18.206;2023-02-01T17:00:18;2.10;;;1.80;;
8683;SDS011;4379;59.744;18.206;2023-02-01T17:02:51;3.30;;;1.90;;
8683;SDS011;4379;59.744;18.206;2023-02-01T17:05:19;1.83;;;1.73;;
8683;SDS011;4379;59.744;18.206;2023-02-01T17:07:49;2.23;;;2.03;;
8683;SDS011;4379;59.744;18.206;2023-02-01T17:10:26;4.40;;;2.00;;
8683;SDS011;4379;59.744;18.206;2023-02-01T17:13:01;2.17;;;1.80;;
8683;SDS011;4379;59.744;18.206;2023-02-01T17:15:31;3.13;;;1.93;;
8683;SDS011;4379;59.744;18.206;2023-02-01T17:18:01;2.40;;;2.20;;
8683;SDS011;4379;59.744;18.206;2023-02-01T17:20:30;2.00;;;1.90;;
8683;SDS011;4379;59.744;18.206;2023-02-01T17:22:58;2.23;;;2.10;;
8683;SDS011;4379;59.744;18.206;2023-02-01T17:25:27;2.53;;;2.33;;
8683;SDS011;4379;59.744;18.206;2023-02-01T17:27:55;2.17;;;2.07;;
8683;SDS011;4379;59.744;18.206;2023-02-01T17:30:23;2.20;;;2.10;;
8683;SDS011;4379;59.744;18.206;2023-02-01T17:32:53;1.87;;;1.73;;
8683;SDS011;4379;59.744;18.206;2023-02-01T17:35:29;2.23;;;2.03;;
8683;SDS011;4379;59.744;18.206;2023-02-01T17:37:58;2.07;;;1.90;;
8683;SDS011;4379;59.744;18.206;2023-02-01T17:40:25;2.07;;;1.87;;
8683;SDS011;4379;59.744;18.206;2023-02-01T17:42:55;2.50;;;2.10;;
8683;SDS011;4379;59.744;18.206;2023-02-01T17:45:37;2.30;;;1.80;;
8683;SDS011;4379;59.744;18.206;2023-02-01T17:48:18;3.60;;;2.13;;
8683;SDS011;4379;59.744;18.206;2023-02-01T17:50:50;1.90;;;1.80;;
8683;SDS011;4379;59.744;18.206;2023-02-01T17:53:27;1.80;;;1.70;;
8683;SDS011;4379;59.744;18.206;2023-02-01T17:55:55;2.20;;;1.90;;
8683;SDS011;4379;59.744;18.206;2023-02-01T17:58:24;1.80;;;1.70;;
8683;SDS011;4379;59.744;18.206;2023-02-01T18:00:52;2.20;;;1.80;;
8683;SDS011;4379;59.744;18.206;2023-02-01T18:03:24;1.63;;;1.53;;
8683;SDS011;4379;59.744;18.206;2023-02-01T18:05:55;3.57;;;1.73;;
8683;SDS011;4379;59.744;18.206;2023-02-01T18:08:25;2.63;;;2.43;;
8683;SDS011;4379;59.744;18.206;2023-02-01T18:10:56;2.20;;;2.10;;
8683;SDS011;4379;59.744;18.206;2023-02-01T18:13:28;2.40;;;1.90;;
8683;SDS011;4379;59.744;18.206;2023-02-01T18:15:57;2.10;;;2.00;;
8683;SDS011;4379;59.744;18.206;2023-02-01T18:18:25;2.20;;;2.00;;
8683;SDS011;4379;59.744;18.206;2023-02-01T18:20:54;2.13;;;1.97;;
8683;SDS011;4379;59.744;18.206;2023-02-01T18:23:23;2.13;;;1.93;;
8683;SDS011;4379;59.744;18.206;2023-02-01T18:25:51;1.90;;;1.80;;
8683;SDS011;4379;59.744;18.206;2023-02-01T18:28:19;1.80;;;1.70;;
8683;SDS011;4379;59.744;18.206;2023-02-01T18:30:47;2.13;;;1.77;;
8683;SDS011;4379;59.744;18.206;2023-02-01T18:33:18;1.77;;;1.67;;
8683;SDS011;4379;59.744;18.206;2023-02-01T18:35:47;2.23;;;1.67;;
8683;SDS011;4379;59.744;18.206;2023-02-01T18:38:16;1.70;;;1.60;;
8683;SDS011;4379;59.744;18.206;2023-02-01T18:40:48;2.00;;;1.67;;